createdAt,value
2018-09-18T00:01:11.844Z,99971.06
2018-09-18T00:03:40.467Z,99971.48
2018-09-18T00:06:08.873Z,99973.55
2018-09-18T00:08:37.742Z,99974.66
2018-09-18T00:11:06.248Z,99965.45
2018-09-18T00:13:34.833Z,99961.23
2018-09-18T00:16:03.749Z,99971.42
2018-09-18T00:18:32.715Z,99965.52
2018-09-18T00:21:01.357Z,99966.39
2018-09-18T00:23:30.210Z,99962.06
2018-09-18T00:25:58.798Z,99960.48
2018-09-18T00:28:27.848Z,99956.99
2018-09-18T00:30:56.370Z,99957.59
2018-09-18T00:33:24.885Z,99959.80
2018-09-18T00:35:53.657Z,99955.12
2018-09-18T00:38:22.146Z,99959.40
2018-09-18T00:40:50.741Z,99950.44
2018-09-18T00:43:19.581Z,99948.91
2018-09-18T00:45:48.455Z,99947.02
2018-09-18T00:48:17.078Z,99944.03
2018-09-18T00:50:45.538Z,99941.61
2018-09-18T00:53:14.512Z,99937.83
2018-09-18T00:55:42.997Z,99931.91
2018-09-18T00:58:11.533Z,99934.13
2018-09-18T01:00:40.087Z,99937.38
2018-09-18T01:03:08.711Z,99932.74
2018-09-18T01:05:37.354Z,99932.48
2018-09-18T01:08:05.948Z,99930.27
2018-09-18T01:10:34.442Z,99935.70
2018-09-18T01:13:02.929Z,99932.42
2018-09-18T01:15:31.520Z,99931.91
2018-09-18T01:18:00.648Z,99933.82
2018-09-18T01:20:29.215Z,99931.86
2018-09-18T01:22:57.817Z,99934.04
2018-09-18T01:25:26.263Z,99930.77
2018-09-18T01:27:54.973Z,99925.55
2018-09-18T01:30:23.911Z,99926.72
2018-09-18T01:32:52.560Z,99927.84
2018-09-18T01:35:21.058Z,99930.33
2018-09-18T01:37:49.815Z,99930.33
2018-09-18T01:40:18.697Z,99928.38
2018-09-18T01:42:47.097Z,99922.09
2018-09-18T01:45:15.553Z,99924.52
2018-09-18T01:47:44.315Z,99926.11
2018-09-18T01:50:13.008Z,99921.45
2018-09-18T01:52:41.453Z,99923.57
2018-09-18T01:55:10.165Z,99918.05
2018-09-18T01:57:39.323Z,99923.66
2018-09-18T02:00:07.853Z,99926.20
2018-09-18T02:02:36.768Z,99921.06
2018-09-18T02:05:05.402Z,99913.55
2018-09-18T02:07:33.838Z,99909.48
2018-09-18T02:10:02.569Z,99911.16
2018-09-18T02:12:31.021Z,99910.95
2018-09-18T02:14:59.500Z,99908.80
2018-09-18T02:17:28.297Z,99907.73
2018-09-18T02:19:57.026Z,99921.38
2018-09-18T02:22:25.551Z,99907.75
2018-09-18T02:24:54.007Z,99908.86
2018-09-18T02:27:22.533Z,99908.32
2018-09-18T02:29:50.936Z,99910.52
2018-09-18T02:32:20.812Z,99907.80
2018-09-18T02:34:49.254Z,99907.30
2018-09-18T02:37:18.017Z,99907.00
2018-09-18T02:39:46.812Z,99910.78
2018-09-18T02:42:15.209Z,99904.77
2018-09-18T02:44:44.091Z,99911.59
2018-09-18T02:47:12.503Z,99903.66
2018-09-18T02:49:40.935Z,99899.31
2018-09-18T02:52:09.375Z,99898.48
2018-09-18T02:54:37.806Z,99900.66
2018-09-18T02:57:06.456Z,99901.19
2018-09-18T02:59:34.855Z,99901.98
2018-09-18T03:02:03.281Z,99900.60
2018-09-18T03:04:32.233Z,99899.81
2018-09-18T03:07:00.762Z,99900.25
2018-09-18T03:09:29.509Z,99896.17
2018-09-18T03:11:58.084Z,99897.73
2018-09-18T03:14:26.493Z,99892.56
2018-09-18T03:16:54.993Z,99893.73
2018-09-18T03:19:23.547Z,99891.64
2018-09-18T03:21:52.202Z,99888.64
2018-09-18T03:24:20.796Z,99893.80
2018-09-18T03:26:49.294Z,99890.82
2018-09-18T03:29:17.813Z,99888.33
2018-09-18T03:31:46.279Z,99887.48
2018-09-18T03:34:14.784Z,99881.50
2018-09-18T03:36:43.301Z,99876.06
2018-09-18T03:39:11.698Z,99880.15
2018-09-18T03:41:40.146Z,99878.48
2018-09-18T03:44:08.616Z,99878.53
2018-09-18T03:46:37.529Z,99875.55
2018-09-18T03:49:05.925Z,99873.93
2018-09-18T03:51:34.380Z,99872.81
2018-09-18T03:54:02.871Z,99868.99
2018-09-18T03:56:31.297Z,99872.16
2018-09-18T03:58:59.778Z,99868.56
2018-09-18T04:01:28.225Z,99872.41
2018-09-18T04:03:56.670Z,99866.69
2018-09-18T04:06:25.224Z,99864.25
2018-09-18T04:08:53.646Z,99857.17
2018-09-18T04:11:22.065Z,99864.59
2018-09-18T04:13:50.610Z,99865.12
2018-09-18T04:16:19.609Z,99861.03
2018-09-18T04:18:48.065Z,99857.70
2018-09-18T04:21:16.509Z,99863.66
2018-09-18T04:23:45.210Z,99867.52
2018-09-18T04:26:13.646Z,99859.88
2018-09-18T04:28:42.054Z,99859.02
2018-09-18T04:31:10.816Z,99857.89
2018-09-18T04:33:39.259Z,99851.55
2018-09-18T04:36:07.895Z,99854.14
2018-09-18T04:38:36.446Z,99855.26
2018-09-18T04:41:04.849Z,99856.09
2018-09-18T04:43:33.289Z,99847.58
2018-09-18T04:46:01.747Z,99849.37
2018-09-18T04:48:30.118Z,99852.36
2018-09-18T04:50:58.871Z,99855.91
2018-09-18T04:53:27.685Z,99855.97
2018-09-18T04:55:56.214Z,99858.17
2018-09-18T04:58:24.809Z,99859.05
2018-09-18T05:00:53.605Z,99867.06
2018-09-18T05:03:22.049Z,99857.33
2018-09-18T05:05:50.462Z,99856.17
2018-09-18T05:08:18.903Z,99865.84
2018-09-18T05:10:47.325Z,99860.14
2018-09-18T05:13:16.103Z,99860.75
2018-09-18T05:15:44.709Z,99855.94
2018-09-18T05:18:13.153Z,99859.50
2018-09-18T05:20:41.588Z,99860.38
2018-09-18T05:23:10.217Z,99861.73
2018-09-18T05:25:38.860Z,99856.32
2018-09-18T05:28:07.268Z,99854.45
2018-09-18T05:30:36.179Z,99856.92
2018-09-18T05:33:04.657Z,99857.16
2018-09-18T05:35:33.162Z,99853.88
2018-09-18T05:38:01.826Z,99856.57
2018-09-18T05:40:30.329Z,99860.63
2018-09-18T05:42:58.863Z,99854.57
2018-09-18T05:45:27.281Z,99859.61
2018-09-18T05:47:55.697Z,99856.85
2018-09-18T05:50:24.104Z,99861.45
2018-09-18T05:52:52.966Z,99863.58
2018-09-18T05:55:21.474Z,99865.92
2018-09-18T05:57:50.118Z,99864.80
2018-09-18T06:00:18.573Z,99871.78
2018-09-18T06:02:47.057Z,99863.72
2018-09-18T06:05:16.295Z,99866.77
2018-09-18T06:07:44.933Z,99864.16
2018-09-18T06:10:13.533Z,99866.66
2018-09-18T06:12:42.006Z,99863.37
2018-09-18T06:15:10.442Z,99857.38
2018-09-18T06:17:38.891Z,99865.35
2018-09-18T06:20:07.413Z,99862.24
2018-09-18T06:22:40.142Z,99858.34
2018-09-18T06:25:08.741Z,99864.37
2018-09-18T06:27:37.390Z,99857.50
2018-09-18T06:30:06.502Z,99857.66
2018-09-18T06:32:35.276Z,99853.63
2018-09-18T06:35:03.908Z,99856.16
2018-09-18T06:37:32.413Z,99858.70
2018-09-18T06:40:01.034Z,99850.58
2018-09-18T06:42:29.649Z,99853.52
2018-09-18T06:44:58.189Z,99853.09
2018-09-18T06:47:26.834Z,99852.35
2018-09-18T06:49:55.510Z,99862.58
2018-09-18T06:52:24.130Z,99851.02
2018-09-18T06:54:52.828Z,99852.05
2018-09-18T06:57:21.491Z,99850.99
2018-09-18T06:59:50.197Z,99843.80
2018-09-18T07:02:18.778Z,99853.31
2018-09-18T07:04:47.498Z,99852.67
2018-09-18T07:07:16.183Z,99850.45
2018-09-18T07:09:44.723Z,99849.84
2018-09-18T07:12:13.269Z,99853.08
2018-09-18T07:14:41.862Z,99844.59
2018-09-18T07:17:10.344Z,99851.80
2018-09-18T07:19:39.506Z,99847.00
2018-09-18T07:22:08.266Z,99843.95
2018-09-18T07:24:36.981Z,99852.86
2018-09-18T07:27:05.595Z,99851.33
2018-09-18T07:29:34.326Z,99855.28
2018-09-18T07:32:03.002Z,99853.76
2018-09-18T07:34:31.619Z,99856.11
2018-09-18T07:37:00.689Z,99852.64
2018-09-18T07:39:29.786Z,99857.34
2018-09-18T07:41:58.871Z,99856.68
2018-09-18T07:44:27.857Z,99850.17
2018-09-18T07:46:56.577Z,99851.77
2018-09-18T07:49:25.105Z,99846.98
2018-09-18T07:51:53.782Z,99846.11
2018-09-18T07:54:22.422Z,99851.84
2018-09-18T07:56:51.041Z,99849.06
2018-09-18T07:59:19.813Z,99846.62
2018-09-18T08:01:48.525Z,99844.66
2018-09-18T08:04:17.237Z,99842.46
2018-09-18T08:06:45.982Z,99840.67
2018-09-18T08:09:14.818Z,99845.97
2018-09-18T08:11:43.622Z,99847.67
2018-09-18T08:14:12.451Z,99854.12
2018-09-18T08:16:40.998Z,99851.92
2018-09-18T08:19:09.823Z,99856.23
2018-09-18T08:21:38.701Z,99852.56
2018-09-18T08:24:07.543Z,99845.45
2018-09-18T08:26:36.245Z,99855.81
2018-09-18T08:29:04.835Z,99838.63
2018-09-18T08:31:33.451Z,99853.76
2018-09-18T08:34:02.260Z,99851.25
2018-09-18T08:36:31.290Z,99849.61
2018-09-18T08:39:00.019Z,99850.88
2018-09-18T08:41:28.718Z,99851.20
2018-09-18T08:43:57.358Z,99851.44
2018-09-18T08:46:26.034Z,99860.98
2018-09-18T08:48:55.661Z,99849.67
2018-09-18T08:51:24.315Z,99855.69
2018-09-18T08:53:53.271Z,99858.65
2018-09-18T08:56:21.901Z,99851.63
2018-09-18T08:58:50.908Z,99848.02
2018-09-18T09:01:19.750Z,99856.89
2018-09-18T09:03:48.512Z,99846.02
2018-09-18T09:06:17.302Z,99856.89
2018-09-18T09:08:45.909Z,99848.56
2018-09-18T09:11:14.309Z,99851.94
2018-09-18T09:13:42.734Z,99853.09
2018-09-18T09:16:11.189Z,99854.56
2018-09-18T09:18:40.085Z,99860.30
2018-09-18T09:21:08.857Z,99852.02
2018-09-18T09:23:37.255Z,99848.72
2018-09-18T09:26:05.900Z,99857.44
2018-09-18T09:28:34.549Z,99856.11
2018-09-18T09:31:03.175Z,99853.27
2018-09-18T09:33:31.735Z,99846.28
2018-09-18T09:36:00.266Z,99855.33
2018-09-18T09:38:28.955Z,99846.17
2018-09-18T09:40:57.562Z,99842.66
2018-09-18T09:43:26.279Z,99842.30
2018-09-18T09:45:55.111Z,99837.44
2018-09-18T09:48:23.643Z,99840.00
2018-09-18T09:50:52.282Z,99841.90
2018-09-18T09:53:20.817Z,99839.72
2018-09-18T09:55:49.562Z,99837.69
2018-09-18T09:58:18.167Z,99835.30
2018-09-18T10:00:51.857Z,99836.07
2018-09-18T10:03:20.389Z,99836.58
2018-09-18T10:05:49.496Z,99842.88
2018-09-18T10:08:18.005Z,99843.65
2018-09-18T10:10:46.827Z,99840.04
2018-09-18T10:13:15.432Z,99836.51
2018-09-18T10:15:44.257Z,99843.48
2018-09-18T10:18:12.836Z,99849.88
2018-09-18T10:20:41.595Z,99844.38
2018-09-18T10:23:10.220Z,99844.57
2018-09-18T10:25:38.872Z,99831.61
2018-09-18T10:28:07.521Z,99839.50
2018-09-18T10:30:36.154Z,99824.09
2018-09-18T10:33:04.946Z,99842.19
2018-09-18T10:35:33.605Z,99830.36
2018-09-18T10:38:02.273Z,99833.70
2018-09-18T10:40:30.902Z,99845.02
2018-09-18T10:42:59.665Z,99833.08
2018-09-18T10:45:28.162Z,99826.69
2018-09-18T10:47:56.736Z,99833.48
2018-09-18T10:50:25.427Z,99824.94
2018-09-18T10:52:54.207Z,99814.34
2018-09-18T10:55:22.815Z,99831.22
2018-09-18T10:57:51.357Z,99823.98
2018-09-18T11:00:32.583Z,99820.65
2018-09-18T11:03:01.153Z,99809.75
2018-09-18T11:05:29.975Z,99817.45
2018-09-18T11:07:58.767Z,99810.87
2018-09-18T11:10:27.541Z,99810.16
2018-09-18T11:12:56.202Z,99809.88
2018-09-18T11:15:24.973Z,99804.20
2018-09-18T11:17:53.554Z,99805.59
2018-09-18T11:20:22.250Z,99795.27
2018-09-18T11:22:50.995Z,99807.80
2018-09-18T11:25:19.709Z,99800.41
2018-09-18T11:27:48.487Z,99801.44
2018-09-18T11:30:17.237Z,99796.88
2018-09-18T11:32:46.014Z,99795.44
2018-09-18T11:35:14.612Z,99793.29
2018-09-18T11:37:43.203Z,99781.75
2018-09-18T11:40:11.877Z,99787.94
2018-09-18T11:42:40.574Z,99799.38
2018-09-18T11:45:09.289Z,99785.39
2018-09-18T11:47:38.047Z,99784.73
2018-09-18T11:50:06.848Z,99783.38
2018-09-18T11:52:35.586Z,99789.78
2018-09-18T11:55:04.354Z,99777.12
2018-09-18T11:57:32.988Z,99784.59
2018-09-18T12:00:01.709Z,99789.59
2018-09-18T12:02:30.762Z,99790.38
2018-09-18T12:04:59.531Z,99788.77
2018-09-18T12:07:28.038Z,99785.34
2018-09-18T12:09:56.649Z,99784.19
2018-09-18T12:12:25.346Z,99783.94
2018-09-18T12:14:54.228Z,99779.37
2018-09-18T12:17:22.791Z,99778.55
2018-09-18T12:19:51.286Z,99778.77
2018-09-18T12:22:19.998Z,99780.75
2018-09-18T12:24:48.738Z,99770.33
2018-09-18T12:27:17.699Z,99772.94
2018-09-18T12:29:46.745Z,99768.73
2018-09-18T12:32:15.571Z,99773.34
2018-09-18T12:34:44.138Z,99771.73
2018-09-18T12:37:12.921Z,99769.16
2018-09-18T12:39:41.723Z,99759.35
2018-09-18T12:42:10.488Z,99763.74
2018-09-18T12:44:39.075Z,99766.77
2018-09-18T12:47:27.349Z,99764.73
2018-09-18T12:49:56.036Z,99768.27
2018-09-18T12:52:25.016Z,99755.15
2018-09-18T12:54:53.696Z,99747.95
2018-09-18T12:57:22.503Z,99755.05
2018-09-18T12:59:50.958Z,99761.86
2018-09-18T13:02:19.717Z,99759.39
2018-09-18T13:04:49.314Z,99756.77
2018-09-18T13:07:17.929Z,99744.35
2018-09-18T13:09:46.483Z,99759.09
2018-09-18T13:12:15.077Z,99765.30
2018-09-18T13:14:43.638Z,99758.18
2018-09-18T13:17:12.200Z,99759.39
2018-09-18T13:19:40.734Z,99756.83
2018-09-18T13:22:09.351Z,99763.11
2018-09-18T13:24:37.985Z,99759.73
2018-09-18T13:27:06.726Z,99762.25
2018-09-18T13:29:35.254Z,99747.44
2018-09-18T13:32:03.835Z,99759.52
2018-09-18T13:34:32.523Z,99750.52
2018-09-18T13:37:01.084Z,99756.01
2018-09-18T13:39:29.571Z,99762.30
2018-09-18T13:41:58.183Z,99763.89
2018-09-18T13:44:26.850Z,99766.66
2018-09-18T13:46:55.441Z,99764.33
2018-09-18T13:49:24.123Z,99755.32
2018-09-18T13:51:52.867Z,99751.90
2018-09-18T13:54:21.491Z,99756.73
2018-09-18T13:56:50.349Z,99754.12
2018-09-18T13:59:19.015Z,99762.11
2018-09-18T14:01:47.748Z,99743.87
2018-09-18T14:04:16.371Z,99759.08
2018-09-18T14:06:44.955Z,99764.08
2018-09-18T14:09:13.836Z,99766.47
2018-09-18T14:11:42.672Z,99762.22
2018-09-18T14:14:11.419Z,99767.63
2018-09-18T14:16:39.948Z,99761.45
2018-09-18T14:19:08.510Z,99762.17
2018-09-18T14:21:37.210Z,99759.53
2018-09-18T14:24:05.730Z,99759.33
2018-09-18T14:26:34.559Z,99761.35
2018-09-18T14:29:02.872Z,99778.34
2018-09-18T14:31:32.087Z,99764.13
2018-09-18T14:34:00.893Z,99764.70
2018-09-18T14:36:29.731Z,99775.31
2018-09-18T14:38:58.418Z,99785.13
2018-09-18T14:41:27.054Z,99783.52
2018-09-18T14:43:55.805Z,99796.79
2018-09-18T14:46:24.262Z,99796.77
2018-09-18T14:48:52.983Z,99796.06
2018-09-18T14:51:21.694Z,99803.69
2018-09-18T14:53:50.234Z,99806.31
2018-09-18T14:56:19.198Z,99810.31
2018-09-18T14:58:48.026Z,99808.00
2018-09-18T15:01:16.675Z,99814.41
2018-09-18T15:03:45.533Z,99819.30
2018-09-18T15:06:14.048Z,99824.20
2018-09-18T15:08:42.559Z,99819.89
2018-09-18T15:11:11.444Z,99817.14
2018-09-18T15:13:40.005Z,99813.94
2018-09-18T15:16:08.523Z,99816.64
2018-09-18T15:18:37.058Z,99811.27
2018-09-18T15:21:05.610Z,99827.98
2018-09-18T15:23:34.197Z,99828.98
2018-09-18T15:26:02.668Z,99840.29
2018-09-18T15:28:31.183Z,99840.13
2018-09-18T15:30:59.736Z,99840.23
2018-09-18T15:33:28.303Z,99838.83
2018-09-18T15:35:56.873Z,99836.16
2018-09-18T15:38:25.441Z,99849.45
2018-09-18T15:40:53.861Z,99823.69
2018-09-18T15:43:22.365Z,99843.00
2018-09-18T15:45:50.848Z,99838.41
2018-09-18T15:48:19.452Z,99833.03
2018-09-18T15:50:48.219Z,99831.41
2018-09-18T15:53:17.016Z,99835.41
2018-09-18T15:55:45.801Z,99831.48
2018-09-18T15:58:15.353Z,99841.68
2018-09-18T16:00:44.123Z,99832.84
2018-09-18T16:03:12.945Z,99837.45
2018-09-18T16:05:41.866Z,99850.27
2018-09-18T16:08:11.806Z,99840.97
2018-09-18T16:10:40.752Z,99839.41
2018-09-18T16:13:09.344Z,99839.48
2018-09-18T16:15:37.956Z,99853.94
2018-09-18T16:18:06.732Z,99843.22
2018-09-18T16:20:37.590Z,99851.69
2018-09-18T16:23:07.029Z,99847.31
2018-09-18T16:25:36.175Z,99849.88
2018-09-18T16:28:06.815Z,99845.75
2018-09-18T16:30:35.777Z,99845.44
2018-09-18T16:33:05.051Z,99845.47
2018-09-18T16:35:33.684Z,99850.31
2018-09-18T16:38:02.641Z,99850.27
2018-09-18T16:40:31.451Z,99851.56
2018-09-18T16:43:00.256Z,99863.69
2018-09-18T16:45:28.986Z,99862.98
2018-09-18T16:47:57.602Z,99857.66
2018-09-18T16:50:26.352Z,99865.80
2018-09-18T16:52:55.157Z,99863.56
2018-09-18T16:55:24.210Z,99865.90
2018-09-18T16:57:52.971Z,99880.33
2018-09-18T17:00:22.638Z,99872.80
2018-09-18T17:02:51.333Z,99868.08
2018-09-18T17:05:20.056Z,99872.93
2018-09-18T17:07:52.484Z,99868.64
2018-09-18T17:10:21.163Z,99879.98
2018-09-18T17:12:50.498Z,99874.25
2018-09-18T17:15:19.386Z,99886.09
2018-09-18T17:17:48.001Z,99888.33
2018-09-18T17:20:17.489Z,99892.97
2018-09-18T17:22:45.984Z,99891.02
2018-09-18T17:25:16.914Z,99900.18
2018-09-18T17:27:46.733Z,99907.19
2018-09-18T17:30:15.956Z,99906.48
2018-09-18T17:32:45.049Z,99917.83
2018-09-18T17:35:14.030Z,99921.56
2018-09-18T17:37:42.866Z,99924.16
2018-09-18T17:40:11.848Z,99934.56
2018-09-18T17:42:41.235Z,99927.45
2018-09-18T17:45:09.985Z,99934.35
2018-09-18T17:47:38.606Z,99941.22
2018-09-18T17:50:07.201Z,99946.77
2018-09-18T17:52:35.730Z,99948.15
2018-09-18T17:55:04.250Z,99948.94
2018-09-18T17:57:32.894Z,99953.09
2018-09-18T18:00:01.493Z,99962.80
2018-09-18T18:02:30.340Z,99966.35
2018-09-18T18:04:59.019Z,99971.30
2018-09-18T18:07:30.121Z,99975.63
2018-09-18T18:10:03.051Z,99977.21
2018-09-18T18:12:34.090Z,99986.25
2018-09-18T18:15:03.007Z,99987.25
2018-09-18T18:17:31.538Z,99990.53
2018-09-18T18:20:00.043Z,99991.61
2018-09-18T18:22:28.525Z,99998.60
2018-09-18T18:24:57.138Z,100006.61
2018-09-18T18:27:25.757Z,99996.66
2018-09-18T18:29:54.305Z,100002.91
2018-09-18T18:32:22.780Z,100008.84
2018-09-18T18:34:51.468Z,100016.64
2018-09-18T18:37:19.934Z,100014.45
2018-09-18T18:39:49.590Z,100017.23
2018-09-18T18:42:18.029Z,100023.85
2018-09-18T18:44:46.664Z,100024.79
2018-09-18T18:47:15.517Z,100034.99
2018-09-18T18:49:44.388Z,100032.25
2018-09-18T18:52:15.121Z,100037.47
2018-09-18T18:54:43.681Z,100037.59
2018-09-18T18:57:12.400Z,100034.37
2018-09-18T18:59:41.045Z,100036.20
2018-09-18T19:02:09.772Z,100045.02
2018-09-18T19:04:38.257Z,100049.57
2018-09-18T19:07:07.166Z,100049.69
2018-09-18T19:09:36.424Z,100046.36
2018-09-18T19:12:05.305Z,100050.40
2018-09-18T19:14:33.856Z,100057.11
2018-09-18T19:17:02.315Z,100061.83
2018-09-18T19:19:31.046Z,100066.58
2018-09-18T19:21:59.635Z,100078.61
2018-09-18T19:24:28.206Z,100086.34
2018-09-18T19:26:56.875Z,100087.75
2018-09-18T19:29:25.434Z,100079.30
2018-09-18T19:31:54.940Z,100083.00
2018-09-18T19:34:23.490Z,100086.56
2018-09-18T19:36:52.269Z,100083.36
2018-09-18T19:39:20.848Z,100082.19
2018-09-18T19:41:49.418Z,100088.79
2018-09-18T19:44:17.960Z,100089.92
2018-09-18T19:46:46.670Z,100094.41
2018-09-18T19:49:15.121Z,100089.44
2018-09-18T19:51:43.828Z,100091.42
2018-09-18T19:54:12.285Z,100088.98
2018-09-18T19:56:40.952Z,100086.56
2018-09-18T19:59:11.402Z,100093.14
2018-09-18T20:01:40.375Z,100093.56
2018-09-18T20:04:08.974Z,100100.03
2018-09-18T20:06:37.637Z,100099.42
2018-09-18T20:09:08.633Z,100105.06
2018-09-18T20:11:37.112Z,100113.47
2018-09-18T20:14:05.585Z,100110.64
2018-09-18T20:16:34.088Z,100115.45
2018-09-18T20:19:02.533Z,100113.70
2018-09-18T20:21:31.421Z,100121.27
2018-09-18T20:24:00.030Z,100117.41
2018-09-18T20:26:28.821Z,100114.54
2018-09-18T20:28:57.613Z,100125.39
2018-09-18T20:31:26.230Z,100122.16
2018-09-18T20:33:54.825Z,100125.89
2018-09-18T20:36:23.452Z,100136.41
2018-09-18T20:38:52.065Z,100123.91
2018-09-18T20:41:20.570Z,100124.58
2018-09-18T20:43:49.214Z,100127.56
2018-09-18T20:46:17.769Z,100125.30
2018-09-18T20:48:46.536Z,100127.16
2018-09-18T20:51:15.098Z,100134.25
2018-09-18T20:53:43.645Z,100132.28
2018-09-18T20:56:12.193Z,100136.58
2018-09-18T20:58:40.629Z,100133.67
2018-09-18T21:01:09.139Z,100138.44
2018-09-18T21:03:38.722Z,100133.83
2018-09-18T21:06:07.241Z,100133.67
2018-09-18T21:08:35.985Z,100137.32
2018-09-18T21:11:04.646Z,100142.28
2018-09-18T21:13:33.158Z,100139.29
2018-09-18T21:16:01.681Z,100136.75
2018-09-18T21:18:30.520Z,100140.14
2018-09-18T21:20:59.764Z,100135.92
2018-09-18T21:23:28.331Z,100145.08
2018-09-18T21:26:05.740Z,100145.36
2018-09-18T21:28:34.438Z,100146.31
2018-09-18T21:31:03.063Z,100154.56
2018-09-18T21:33:31.743Z,100159.58
2018-09-18T21:36:00.837Z,100157.84
2018-09-18T21:38:29.710Z,100164.14
2018-09-18T21:40:58.318Z,100160.23
2018-09-18T21:43:27.448Z,100163.52
2018-09-18T21:45:56.114Z,100163.91
2018-09-18T21:48:24.671Z,100159.48
2018-09-18T21:50:53.116Z,100163.51
2018-09-18T21:53:21.639Z,100166.16
2018-09-18T21:55:50.175Z,100161.72
2018-09-18T21:58:18.681Z,100159.67
2018-09-18T22:00:47.168Z,100168.88
2018-09-18T22:03:16.386Z,100151.38
2018-09-18T22:05:44.998Z,100153.48
2018-09-18T22:08:13.740Z,100161.19
2018-09-18T22:10:42.327Z,100162.30
2018-09-18T22:13:11.257Z,100171.25
2018-09-18T22:15:39.904Z,100176.48
2018-09-18T22:18:08.482Z,100174.92
2018-09-18T22:20:37.059Z,100180.61
2018-09-18T22:23:05.641Z,100174.72
2018-09-18T22:25:34.128Z,100179.45
2018-09-18T22:28:02.754Z,100188.48
2018-09-18T22:30:31.341Z,100187.00
2018-09-18T22:32:59.868Z,100187.01
2018-09-18T22:35:28.346Z,100190.58
2018-09-18T22:37:56.891Z,100190.58
2018-09-18T22:40:25.637Z,100189.70
2018-09-18T22:42:54.271Z,100197.45
2018-09-18T22:45:22.828Z,100190.45
2018-09-18T22:47:51.441Z,100193.49
2018-09-18T22:50:20.081Z,100193.55
2018-09-18T22:52:48.637Z,100188.69
2018-09-18T22:55:17.153Z,100195.44
2018-09-18T22:57:45.742Z,100199.56
2018-09-18T23:00:14.294Z,100187.98
2018-09-18T23:02:42.981Z,100188.75
2018-09-18T23:05:11.598Z,100196.87
2018-09-18T23:10:34.061Z,100200.64
2018-09-18T23:13:02.612Z,100203.36
2018-09-18T23:15:31.119Z,100204.56
2018-09-18T23:17:59.681Z,100208.05
2018-09-18T23:20:28.187Z,100206.07
2018-09-18T23:22:56.748Z,100215.09
2018-09-18T23:25:25.263Z,100213.94
2018-09-18T23:27:53.766Z,100222.16
2018-09-18T23:30:22.550Z,100217.30
2018-09-18T23:32:51.174Z,100224.76
2018-09-18T23:35:19.726Z,100221.14
2018-09-18T23:37:48.412Z,100223.52
2018-09-18T23:40:16.977Z,100221.09
2018-09-18T23:42:45.572Z,100222.75
2018-09-18T23:45:14.198Z,100224.95
2018-09-18T23:47:42.796Z,100227.28
2018-09-18T23:50:11.354Z,100233.37
2018-09-18T23:52:39.965Z,100228.02
2018-09-18T23:55:08.592Z,100231.62
2018-09-18T23:57:37.152Z,100231.45
